sensor_id;sensor_type;location;lat;lon;timestamp;temperature;humidity
4293;DHT22;2160;51.172;6.808;2023-02-28T05:01:34;4.10;99.90
4293;DHT22;2160;51.172;6.808;2023-02-28T05:04:03;4.10;99.90
4293;DHT22;2160;51.172;6.808;2023-02-28T05:06:33;4.10;99.90
4293;DHT22;2160;51.172;6.808;2023-02-28T05:09:00;4.10;99.90
4293;DHT22;2160;51.172;6.808;2023-02-28T05:11:29;4.30;99.90
4293;DHT22;2160;51.172;6.808;2023-02-28T05:14:00;4.10;99.90
4293;DHT22;2160;51.172;6.808;2023-02-28T05:16:27;4.00;99.90
4293;DHT22;2160;51.172;6.808;2023-02-28T05:18:56;4.00;99.90
4293;DHT22;2160;51.172;6.808;2023-02-28T05:21:28;4.00;99.90
4293;DHT22;2160;51.172;6.808;2023-02-28T05:23:56;4.00;99.90
4293;DHT22;2160;51.172;6.808;2023-02-28T05:26:24;4.00;99.90
4293;DHT22;2160;51.172;6.808;2023-02-28T05:28:51;3.90;99.90
4293;DHT22;2160;51.172;6.808;2023-02-28T05:31:18;4.00;99.90
4293;DHT22;2160;51.172;6.808;2023-02-28T05:33:45;4.00;99.90
4293;DHT22;2160;51.172;6.808;2023-02-28T05:36:14;4.00;99.90
4293;DHT22;2160;51.172;6.808;2023-02-28T05:38:41;4.10;99.90
4293;DHT22;2160;51.172;6.808;2023-02-28T05:41:08;4.00;99.90
4293;DHT22;2160;51.172;6.808;2023-02-28T05:43:36;4.10;99.90
4293;DHT22;2160;51.172;6.808;2023-02-28T05:46:04;4.20;99.90
4293;DHT22;2160;51.172;6.808;2023-02-28T05:48:32;4.00;99.90
4293;DHT22;2160;51.172;6.808;2023-02-28T05:51:00;4.00;99.90
4293;DHT22;2160;51.172;6.808;2023-02-28T05:53:28;4.00;99.90
4293;DHT22;2160;51.172;6.808;2023-02-28T05:55:55;4.10;99.90
4293;DHT22;2160;51.172;6.808;2023-02-28T05:58:22;4.10;99.90
4293;DHT22;2160;51.172;6.808;2023-02-28T06:00:51;4.00;99.90
4293;DHT22;2160;51.172;6.808;2023-02-28T06:03:18;4.00;99.90
4293;DHT22;2160;51.172;6.808;2023-02-28T06:05:45;4.30;99.90
4293;DHT22;2160;51.172;6.808;2023-02-28T06:08:12;4.10;99.90
4293;DHT22;2160;51.172;6.808;2023-02-28T06:10:40;4.30;99.90
4293;DHT22;2160;51.172;6.808;2023-02-28T06:13:07;4.10;99.70
4293;DHT22;2160;51.172;6.808;2023-02-28T06:15:34;4.10;99.80
4293;DHT22;2160;51.172;6.808;2023-02-28T06:18:01;4.20;99.70
4293;DHT22;2160;51.172;6.808;2023-02-28T06:20:28;4.00;99.40
4293;DHT22;2160;51.172;6.808;2023-02-28T06:22:56;3.90;99.60
4293;DHT22;2160;51.172;6.808;2023-02-28T06:25:25;3.90;99.30
4293;DHT22;2160;51.172;6.808;2023-02-28T06:27:54;3.90;99.30
4293;DHT22;2160;51.172;6.808;2023-02-28T06:30:22;3.90;99.80
4293;DHT22;2160;51.172;6.808;2023-02-28T06:32:50;3.90;99.90
4293;DHT22;2160;51.172;6.808;2023-02-28T06:35:20;4.00;99.20
4293;DHT22;2160;51.172;6.808;2023-02-28T06:37:47;3.90;99.00
4293;DHT22;2160;51.172;6.808;2023-02-28T06:40:14;4.10;99.60
4293;DHT22;2160;51.172;6.808;2023-02-28T06:42:41;4.00;98.80
4293;DHT22;2160;51.172;6.808;2023-02-28T06:45:10;4.00;98.60
4293;DHT22;2160;51.172;6.808;2023-02-28T06:47:38;3.90;98.20
4293;DHT22;2160;51.172;6.808;2023-02-28T06:50:07;3.90;98.20
4293;DHT22;2160;51.172;6.808;2023-02-28T06:52:34;3.80;98.00
4293;DHT22;2160;51.172;6.808;2023-02-28T06:55:03;3.80;97.60
4293;DHT22;2160;51.172;6.808;2023-02-28T06:57:31;3.70;97.10
4293;DHT22;2160;51.172;6.808;2023-02-28T06:59:59;3.80;97.20
4293;DHT22;2160;51.172;6.808;2023-02-28T07:02:27;3.70;96.90
4293;DHT22;2160;51.172;6.808;2023-02-28T07:04:54;3.70;96.90
4293;DHT22;2160;51.172;6.808;2023-02-28T07:07:21;3.90;96.80
4293;DHT22;2160;51.172;6.808;2023-02-28T07:09:48;3.80;96.70
4293;DHT22;2160;51.172;6.808;2023-02-28T07:12:15;3.80;96.10
4293;DHT22;2160;51.172;6.808;2023-02-28T07:14:42;3.90;95.80
4293;DHT22;2160;51.172;6.808;2023-02-28T07:17:10;3.90;95.60
4293;DHT22;2160;51.172;6.808;2023-02-28T07:19:39;4.00;94.80
4293;DHT22;2160;51.172;6.808;2023-02-28T07:22:06;4.10;94.20
4293;DHT22;2160;51.172;6.808;2023-02-28T07:24:34;4.10;94.60
4293;DHT22;2160;51.172;6.808;2023-02-28T07:27:00;4.10;93.70
4293;DHT22;2160;51.172;6.808;2023-02-28T07:29:28;4.20;93.40
4293;DHT22;2160;51.172;6.808;2023-02-28T07:31:55;4.20;92.70
4293;DHT22;2160;51.172;6.808;2023-02-28T07:34:22;4.20;92.30
4293;DHT22;2160;51.172;6.808;2023-02-28T07:36:54;4.20;91.90
4293;DHT22;2160;51.172;6.808;2023-02-28T07:39:22;4.30;92.00
4293;DHT22;2160;51.172;6.808;2023-02-28T07:41:49;4.30;91.90
4293;DHT22;2160;51.172;6.808;2023-02-28T07:44:16;4.60;91.60
4293;DHT22;2160;51.172;6.808;2023-02-28T07:46:43;4.40;91.60
4293;DHT22;2160;51.172;6.808;2023-02-28T07:49:10;4.40;91.00
4293;DHT22;2160;51.172;6.808;2023-02-28T07:51:37;4.40;90.10
4293;DHT22;2160;51.172;6.808;2023-02-28T07:54:05;4.40;91.80
4293;DHT22;2160;51.172;6.808;2023-02-28T07:56:32;4.40;91.50
4293;DHT22;2160;51.172;6.808;2023-02-28T07:58:59;4.40;90.30
4293;DHT22;2160;51.172;6.808;2023-02-28T08:01:27;4.50;89.50
4293;DHT22;2160;51.172;6.808;2023-02-28T08:03:54;4.50;88.30
4293;DHT22;2160;51.172;6.808;2023-02-28T08:06:25;4.60;90.40
4293;DHT22;2160;51.172;6.808;2023-02-28T08:08:53;4.70;87.70
4293;DHT22;2160;51.172;6.808;2023-02-28T08:11:22;4.70;84.30
4293;DHT22;2160;51.172;6.808;2023-02-28T08:13:49;4.70;83.00
4293;DHT22;2160;51.172;6.808;2023-02-28T08:16:17;4.90;86.40
4293;DHT22;2160;51.172;6.808;2023-02-28T08:18:48;5.10;84.30
4293;DHT22;2160;51.172;6.808;2023-02-28T08:21:15;5.20;84.50
4293;DHT22;2160;51.172;6.808;2023-02-28T08:23:41;5.10;80.20
4293;DHT22;2160;51.172;6.808;2023-02-28T08:26:08;5.00;81.10
4293;DHT22;2160;51.172;6.808;2023-02-28T08:28:37;5.10;79.50
4293;DHT22;2160;51.172;6.808;2023-02-28T08:31:07;5.40;79.90
4293;DHT22;2160;51.172;6.808;2023-02-28T08:33:35;5.40;80.10
4293;DHT22;2160;51.172;6.808;2023-02-28T08:36:05;5.50;79.30
4293;DHT22;2160;51.172;6.808;2023-02-28T08:38:32;5.50;79.50
4293;DHT22;2160;51.172;6.808;2023-02-28T08:41:01;5.60;76.90
4293;DHT22;2160;51.172;6.808;2023-02-28T08:43:28;5.70;76.80
4293;DHT22;2160;51.172;6.808;2023-02-28T08:45:57;5.70;74.10
4293;DHT22;2160;51.172;6.808;2023-02-28T08:48:24;5.70;72.60
4293;DHT22;2160;51.172;6.808;2023-02-28T08:50:55;5.80;72.50
4293;DHT22;2160;51.172;6.808;2023-02-28T08:53:23;5.80;74.30
4293;DHT22;2160;51.172;6.808;2023-02-28T08:55:56;5.90;73.10
4293;DHT22;2160;51.172;6.808;2023-02-28T08:58:23;6.00;73.10
4293;DHT22;2160;51.172;6.808;2023-02-28T09:00:51;6.00;71.60
4293;DHT22;2160;51.172;6.808;2023-02-28T09:03:19;6.00;67.60
4293;DHT22;2160;51.172;6.808;2023-02-28T09:05:54;6.20;67.20
4293;DHT22;2160;51.172;6.808;2023-02-28T09:08:22;5.90;66.90
4293;DHT22;2160;51.172;6.808;2023-02-28T09:10:51;6.00;65.80
4293;DHT22;2160;51.172;6.808;2023-02-28T09:13:19;6.20;66.60
4293;DHT22;2160;51.172;6.808;2023-02-28T09:15:47;6.20;65.00
4293;DHT22;2160;51.172;6.808;2023-02-28T09:18:14;6.20;66.40
4293;DHT22;2160;51.172;6.808;2023-02-28T09:20:43;6.20;61.20
4293;DHT22;2160;51.172;6.808;2023-02-28T09:23:11;6.20;60.60
4293;DHT22;2160;51.172;6.808;2023-02-28T09:25:45;6.10;60.50
4293;DHT22;2160;51.172;6.808;2023-02-28T09:28:13;6.20;61.00
4293;DHT22;2160;51.172;6.808;2023-02-28T09:30:42;6.20;59.70
4293;DHT22;2160;51.172;6.808;2023-02-28T09:33:11;6.20;59.50
4293;DHT22;2160;51.172;6.808;2023-02-28T09:35:38;6.40;59.20
4293;DHT22;2160;51.172;6.808;2023-02-28T09:38:06;6.60;59.30
4293;DHT22;2160;51.172;6.808;2023-02-28T09:40:37;6.40;59.90
4293;DHT22;2160;51.172;6.808;2023-02-28T09:43:05;6.10;57.90
4293;DHT22;2160;51.172;6.808;2023-02-28T09:45:35;6.10;60.10
4293;DHT22;2160;51.172;6.808;2023-02-28T09:48:06;6.00;60.70
4293;DHT22;2160;51.172;6.808;2023-02-28T09:50:39;6.10;60.40
4293;DHT22;2160;51.172;6.808;2023-02-28T09:53:19;6.20;61.10
4293;DHT22;2160;51.172;6.808;2023-02-28T09:55:51;6.60;59.50
4293;DHT22;2160;51.172;6.808;2023-02-28T09:58:26;6.40;59.10
4293;DHT22;2160;51.172;6.808;2023-02-28T10:00:59;6.40;59.60
4293;DHT22;2160;51.172;6.808;2023-02-28T10:03:33;6.40;60.00
4293;DHT22;2160;51.172;6.808;2023-02-28T10:06:08;6.30;60.40
4293;DHT22;2160;51.172;6.808;2023-02-28T10:08:42;6.40;59.90
4293;DHT22;2160;51.172;6.808;2023-02-28T10:11:14;6.20;59.00
4293;DHT22;2160;51.172;6.808;2023-02-28T10:13:50;6.30;59.50
4293;DHT22;2160;51.172;6.808;2023-02-28T10:16:25;6.10;59.70
4293;DHT22;2160;51.172;6.808;2023-02-28T10:18:57;6.10;60.00
4293;DHT22;2160;51.172;6.808;2023-02-28T10:21:28;6.10;62.80
4293;DHT22;2160;51.172;6.808;2023-02-28T10:24:03;6.30;59.90
4293;DHT22;2160;51.172;6.808;2023-02-28T10:26:32;6.50;60.60
4293;DHT22;2160;51.172;6.808;2023-02-28T10:28:59;6.50;60.30
4293;DHT22;2160;51.172;6.808;2023-02-28T10:31:28;6.70;58.90
4293;DHT22;2160;51.172;6.808;2023-02-28T10:33:55;6.90;60.40
4293;DHT22;2160;51.172;6.808;2023-02-28T10:36:22;7.10;58.60
4293;DHT22;2160;51.172;6.808;2023-02-28T10:38:50;7.10;58.70
4293;DHT22;2160;51.172;6.808;2023-02-28T10:41:28;7.20;58.90
4293;DHT22;2160;51.172;6.808;2023-02-28T10:44:15;7.30;58.80
4293;DHT22;2160;51.172;6.808;2023-02-28T10:46:44;7.30;58.40
4293;DHT22;2160;51.172;6.808;2023-02-28T10:49:17;7.20;56.60
4293;DHT22;2160;51.172;6.808;2023-02-28T10:51:48;7.10;57.10
4293;DHT22;2160;51.172;6.808;2023-02-28T10:54:18;7.20;56.90
4293;DHT22;2160;51.172;6.808;2023-02-28T10:57:05;7.20;57.80
4293;DHT22;2160;51.172;6.808;2023-02-28T10:59:32;7.00;56.50
4293;DHT22;2160;51.172;6.808;2023-02-28T11:01:59;7.10;57.80
4293;DHT22;2160;51.172;6.808;2023-02-28T11:04:35;7.00;57.50
4293;DHT22;2160;51.172;6.808;2023-02-28T11:07:06;7.40;58.50
4293;DHT22;2160;51.172;6.808;2023-02-28T11:09:35;7.40;57.80
4293;DHT22;2160;51.172;6.808;2023-02-28T11:12:08;7.50;57.20
4293;DHT22;2160;51.172;6.808;2023-02-28T11:14:48;7.60;57.60
4293;DHT22;2160;51.172;6.808;2023-02-28T11:17:20;7.60;58.40
4293;DHT22;2160;51.172;6.808;2023-02-28T11:19:51;7.90;57.90
4293;DHT22;2160;51.172;6.808;2023-02-28T11:22:20;7.80;57.90
4293;DHT22;2160;51.172;6.808;2023-02-28T11:24:51;7.70;57.20
4293;DHT22;2160;51.172;6.808;2023-02-28T11:27:44;7.60;57.90
4293;DHT22;2160;51.172;6.808;2023-02-28T11:30:32;7.40;57.70
4293;DHT22;2160;51.172;6.808;2023-02-28T11:33:00;7.50;58.20
4293;DHT22;2160;51.172;6.808;2023-02-28T11:35:31;7.70;58.00
4293;DHT22;2160;51.172;6.808;2023-02-28T11:38:00;7.90;57.20
4293;DHT22;2160;51.172;6.808;2023-02-28T11:40:39;8.00;57.60
4293;DHT22;2160;51.172;6.808;2023-02-28T11:43:20;8.10;58.40
4293;DHT22;2160;51.172;6.808;2023-02-28T11:46:01;8.00;56.00
4293;DHT22;2160;51.172;6.808;2023-02-28T11:48:36;8.20;57.10
4293;DHT22;2160;51.172;6.808;2023-02-28T11:51:11;8.40;57.70
4293;DHT22;2160;51.172;6.808;2023-02-28T11:56:37;8.40;55.00
4293;DHT22;2160;51.172;6.808;2023-02-28T11:59:25;8.50;55.50
4293;DHT22;2160;51.172;6.808;2023-02-28T12:02:05;8.40;54.60
4293;DHT22;2160;51.172;6.808;2023-02-28T12:04:41;8.50;54.30
4293;DHT22;2160;51.172;6.808;2023-02-28T12:07:15;8.60;55.50
4293;DHT22;2160;51.172;6.808;2023-02-28T12:09:50;8.60;54.10
4293;DHT22;2160;51.172;6.808;2023-02-28T12:12:28;8.80;54.00
4293;DHT22;2160;51.172;6.808;2023-02-28T12:15:22;8.70;53.60
4293;DHT22;2160;51.172;6.808;2023-02-28T12:17:59;8.80;54.00
4293;DHT22;2160;51.172;6.808;2023-02-28T12:20:34;8.80;52.20
4293;DHT22;2160;51.172;6.808;2023-02-28T12:23:36;8.70;54.00
4293;DHT22;2160;51.172;6.808;2023-02-28T12:26:15;8.80;52.30
4293;DHT22;2160;51.172;6.808;2023-02-28T12:28:47;8.80;54.10
4293;DHT22;2160;51.172;6.808;2023-02-28T12:31:20;8.80;54.20
4293;DHT22;2160;51.172;6.808;2023-02-28T12:33:51;8.70;53.30
4293;DHT22;2160;51.172;6.808;2023-02-28T12:36:20;8.80;53.80
4293;DHT22;2160;51.172;6.808;2023-02-28T12:38:53;8.80;55.20
4293;DHT22;2160;51.172;6.808;2023-02-28T12:41:26;8.90;53.50
4293;DHT22;2160;51.172;6.808;2023-02-28T12:44:00;9.00;54.40
4293;DHT22;2160;51.172;6.808;2023-02-28T12:46:33;8.80;53.70
4293;DHT22;2160;51.172;6.808;2023-02-28T12:49:05;8.90;53.30
4293;DHT22;2160;51.172;6.808;2023-02-28T12:51:33;9.00;52.50
4293;DHT22;2160;51.172;6.808;2023-02-28T12:54:07;8.90;52.40
4293;DHT22;2160;51.172;6.808;2023-02-28T12:56:43;9.00;52.30
4293;DHT22;2160;51.172;6.808;2023-02-28T12:59:19;9.00;52.00
4293;DHT22;2160;51.172;6.808;2023-02-28T13:02:00;9.20;51.50
4293;DHT22;2160;51.172;6.808;2023-02-28T13:04:57;9.30;52.20
4293;DHT22;2160;51.172;6.808;2023-02-28T13:10:22;9.50;51.90
4293;DHT22;2160;51.172;6.808;2023-02-28T13:12:52;9.60;52.20
4293;DHT22;2160;51.172;6.808;2023-02-28T13:15:22;9.30;51.50
4293;DHT22;2160;51.172;6.808;2023-02-28T13:17:53;9.40;53.10
4293;DHT22;2160;51.172;6.808;2023-02-28T13:20:23;9.30;51.90
4293;DHT22;2160;51.172;6.808;2023-02-28T13:22:52;9.30;50.90
4293;DHT22;2160;51.172;6.808;2023-02-28T13:25:53;9.30;51.50
4293;DHT22;2160;51.172;6.808;2023-02-28T13:34:39;9.50;51.30
4293;DHT22;2160;51.172;6.808;2023-02-28T13:37:32;9.20;50.00
4293;DHT22;2160;51.172;6.808;2023-02-28T13:40:28;9.20;53.20
4293;DHT22;2160;51.172;6.808;2023-02-28T13:42:56;9.40;51.00
4293;DHT22;2160;51.172;6.808;2023-02-28T13:45:26;9.40;51.00
4293;DHT22;2160;51.172;6.808;2023-02-28T13:47:56;9.30;50.30
4293;DHT22;2160;51.172;6.808;2023-02-28T13:50:31;9.50;53.20
4293;DHT22;2160;51.172;6.808;2023-02-28T13:53:21;9.50;50.70
4293;DHT22;2160;51.172;6.808;2023-02-28T13:55:54;9.40;50.20
4293;DHT22;2160;51.172;6.808;2023-02-28T13:58:34;9.70;50.90
4293;DHT22;2160;51.172;6.808;2023-02-28T14:01:31;9.80;50.80
4293;DHT22;2160;51.172;6.808;2023-02-28T14:07:30;10.10;50.40
4293;DHT22;2160;51.172;6.808;2023-02-28T14:10:03;10.30;50.10
4293;DHT22;2160;51.172;6.808;2023-02-28T14:12:53;10.20;52.00
4293;DHT22;2160;51.172;6.808;2023-02-28T14:15:46;10.30;50.80
4293;DHT22;2160;51.172;6.808;2023-02-28T14:18:29;10.20;49.30
4293;DHT22;2160;51.172;6.808;2023-02-28T14:21:20;10.10;51.90
4293;DHT22;2160;51.172;6.808;2023-02-28T14:27:27;10.20;50.30
4293;DHT22;2160;51.172;6.808;2023-02-28T14:30:16;10.20;49.80
4293;DHT22;2160;51.172;6.808;2023-02-28T14:32:53;10.20;51.30
4293;DHT22;2160;51.172;6.808;2023-02-28T14:35:43;10.40;48.90
4293;DHT22;2160;51.172;6.808;2023-02-28T14:38:17;10.60;50.40
4293;DHT22;2160;51.172;6.808;2023-02-28T14:40:47;10.70;50.50
4293;DHT22;2160;51.172;6.808;2023-02-28T14:43:23;10.60;49.40
4293;DHT22;2160;51.172;6.808;2023-02-28T14:45:52;10.40;48.10
4293;DHT22;2160;51.172;6.808;2023-02-28T14:48:22;10.10;48.80
4293;DHT22;2160;51.172;6.808;2023-02-28T14:50:53;10.30;49.60
4293;DHT22;2160;51.172;6.808;2023-02-28T14:53:22;10.10;48.90
4293;DHT22;2160;51.172;6.808;2023-02-28T14:55:50;10.10;49.60
4293;DHT22;2160;51.172;6.808;2023-02-28T14:58:27;10.10;50.00
4293;DHT22;2160;51.172;6.808;2023-02-28T15:00:56;10.40;50.90
4293;DHT22;2160;51.172;6.808;2023-02-28T15:03:28;10.10;49.10
4293;DHT22;2160;51.172;6.808;2023-02-28T15:05:58;10.00;50.40
4293;DHT22;2160;51.172;6.808;2023-02-28T15:08:25;10.10;50.50
4293;DHT22;2160;51.172;6.808;2023-02-28T15:10:56;9.70;49.50
4293;DHT22;2160;51.172;6.808;2023-02-28T15:13:31;9.70;50.20
4293;DHT22;2160;51.172;6.808;2023-02-28T15:16:03;9.80;51.30
4293;DHT22;2160;51.172;6.808;2023-02-28T15:18:36;9.80;51.90
4293;DHT22;2160;51.172;6.808;2023-02-28T15:21:10;9.90;52.70
4293;DHT22;2160;51.172;6.808;2023-02-28T15:23:41;10.00;52.20
4293;DHT22;2160;51.172;6.808;2023-02-28T15:26:12;9.90;51.90
4293;DHT22;2160;51.172;6.808;2023-02-28T15:28:42;9.80;52.00
4293;DHT22;2160;51.172;6.808;2023-02-28T15:31:20;9.70;51.80
4293;DHT22;2160;51.172;6.808;2023-02-28T15:33:55;9.80;52.00
4293;DHT22;2160;51.172;6.808;2023-02-28T15:36:26;9.60;51.60
4293;DHT22;2160;51.172;6.808;2023-02-28T15:38:54;9.50;51.90
4293;DHT22;2160;51.172;6.808;2023-02-28T15:41:26;9.40;51.80
4293;DHT22;2160;51.172;6.808;2023-02-28T15:44:17;9.60;52.70
4293;DHT22;2160;51.172;6.808;2023-02-28T15:46:54;9.80;53.00
4293;DHT22;2160;51.172;6.808;2023-02-28T15:49:22;9.70;52.60
4293;DHT22;2160;51.172;6.808;2023-02-28T15:51:51;9.50;51.60
4293;DHT22;2160;51.172;6.808;2023-02-28T15:54:21;9.50;52.50
4293;DHT22;2160;51.172;6.808;2023-02-28T15:56:51;9.30;52.90
4293;DHT22;2160;51.172;6.808;2023-02-28T15:59:22;9.20;55.20
4293;DHT22;2160;51.172;6.808;2023-02-28T16:02:03;9.20;53.70
4293;DHT22;2160;51.172;6.808;2023-02-28T16:04:55;9.10;53.60
4293;DHT22;2160;51.172;6.808;2023-02-28T16:07:22;9.20;54.60
4293;DHT22;2160;51.172;6.808;2023-02-28T16:09:50;9.10;54.70
4293;DHT22;2160;51.172;6.808;2023-02-28T16:12:17;9.10;54.10
4293;DHT22;2160;51.172;6.808;2023-02-28T16:14:52;9.10;56.60
4293;DHT22;2160;51.172;6.808;2023-02-28T16:17:21;9.30;55.00
4293;DHT22;2160;51.172;6.808;2023-02-28T16:19:49;9.10;54.30
4293;DHT22;2160;51.172;6.808;2023-02-28T16:22:16;9.00;54.60
4293;DHT22;2160;51.172;6.808;2023-02-28T16:24:43;8.90;54.50
4293;DHT22;2160;51.172;6.808;2023-02-28T16:27:17;9.20;55.20
4293;DHT22;2160;51.172;6.808;2023-02-28T16:29:47;8.90;55.50
4293;DHT22;2160;51.172;6.808;2023-02-28T16:32:15;8.90;55.50
4293;DHT22;2160;51.172;6.808;2023-02-28T16:34:42;8.90;55.90
4293;DHT22;2160;51.172;6.808;2023-02-28T16:37:14;8.70;55.50
4293;DHT22;2160;51.172;6.808;2023-02-28T16:39:42;8.70;56.90
4293;DHT22;2160;51.172;6.808;2023-02-28T16:42:16;8.70;57.00
4293;DHT22;2160;51.172;6.808;2023-02-28T16:44:45;8.70;58.00
4293;DHT22;2160;51.172;6.808;2023-02-28T16:47:12;8.60;57.10
4293;DHT22;2160;51.172;6.808;2023-02-28T16:49:39;8.60;58.30
4293;DHT22;2160;51.172;6.808;2023-02-28T16:52:09;8.70;57.50
4293;DHT22;2160;51.172;6.808;2023-02-28T16:54:36;8.60;58.40
4293;DHT22;2160;51.172;6.808;2023-02-28T16:57:04;8.70;58.80
4293;DHT22;2160;51.172;6.808;2023-02-28T16:59:36;8.60;58.30
4293;DHT22;2160;51.172;6.808;2023-02-28T17:02:08;8.60;59.70
4293;DHT22;2160;51.172;6.808;2023-02-28T17:04:37;8.60;58.80
4293;DHT22;2160;51.172;6.808;2023-02-28T17:07:04;8.80;58.70
4293;DHT22;2160;51.172;6.808;2023-02-28T17:09:31;8.60;58.40
4293;DHT22;2160;51.172;6.808;2023-02-28T17:11:58;8.60;58.90
4293;DHT22;2160;51.172;6.808;2023-02-28T17:14:25;8.50;58.50
4293;DHT22;2160;51.172;6.808;2023-02-28T17:16:52;8.50;58.80
4293;DHT22;2160;51.172;6.808;2023-02-28T17:19:20;8.60;58.90
4293;DHT22;2160;51.172;6.808;2023-02-28T17:21:47;8.30;59.00
4293;DHT22;2160;51.172;6.808;2023-02-28T17:24:14;8.40;59.30
4293;DHT22;2160;51.172;6.808;2023-02-28T17:26:42;8.30;59.10
4293;DHT22;2160;51.172;6.808;2023-02-28T17:29:15;8.20;58.80
4293;DHT22;2160;51.172;6.808;2023-02-28T17:31:43;8.20;59.10
4293;DHT22;2160;51.172;6.808;2023-02-28T17:34:10;8.20;59.50
4293;DHT22;2160;51.172;6.808;2023-02-28T17:36:38;8.20;59.80
4293;DHT22;2160;51.172;6.808;2023-02-28T17:39:09;8.20;59.70
4293;DHT22;2160;51.172;6.808;2023-02-28T17:41:39;8.00;59.60
4293;DHT22;2160;51.172;6.808;2023-02-28T17:44:07;8.00;59.80
4293;DHT22;2160;51.172;6.808;2023-02-28T17:46:35;8.10;60.00
4293;DHT22;2160;51.172;6.808;2023-02-28T17:49:02;8.00;60.20
4293;DHT22;2160;51.172;6.808;2023-02-28T17:51:29;8.10;60.80
4293;DHT22;2160;51.172;6.808;2023-02-28T17:53:58;8.10;61.20
4293;DHT22;2160;51.172;6.808;2023-02-28T17:56:26;8.00;61.40
4293;DHT22;2160;51.172;6.808;2023-02-28T17:58:55;8.00;60.70
4293;DHT22;2160;51.172;6.808;2023-02-28T18:01:23;7.90;61.20
4293;DHT22;2160;51.172;6.808;2023-02-28T18:03:51;8.10;61.80
4293;DHT22;2160;51.172;6.808;2023-02-28T18:06:21;8.00;61.40
4293;DHT22;2160;51.172;6.808;2023-02-28T18:08:48;8.20;61.20
4293;DHT22;2160;51.172;6.808;2023-02-28T18:11:18;8.30;61.50
4293;DHT22;2160;51.172;6.808;2023-02-28T18:13:47;8.20;61.30
4293;DHT22;2160;51.172;6.808;2023-02-28T18:16:15;8.10;61.40
4293;DHT22;2160;51.172;6.808;2023-02-28T18:18:42;8.20;61.90
4293;DHT22;2160;51.172;6.808;2023-02-28T18:21:11;8.10;61.40
4293;DHT22;2160;51.172;6.808;2023-02-28T18:23:39;8.00;61.80
4293;DHT22;2160;51.172;6.808;2023-02-28T18:26:13;8.20;62.10
4293;DHT22;2160;51.172;6.808;2023-02-28T18:28:41;8.00;62.00
4293;DHT22;2160;51.172;6.808;2023-02-28T18:31:10;7.90;62.60
4293;DHT22;2160;51.172;6.808;2023-02-28T18:33:40;7.90;63.00
4293;DHT22;2160;51.172;6.808;2023-02-28T18:36:07;7.90;63.10
4293;DHT22;2160;51.172;6.808;2023-02-28T18:38:35;7.90;63.60
4293;DHT22;2160;51.172;6.808;2023-02-28T18:41:04;7.80;63.70
4293;DHT22;2160;51.172;6.808;2023-02-28T18:43:33;7.80;63.90
4293;DHT22;2160;51.172;6.808;2023-02-28T18:46:05;7.80;63.90
4293;DHT22;2160;51.172;6.808;2023-02-28T18:48:32;7.80;64.40
4293;DHT22;2160;51.172;6.808;2023-02-28T18:51:05;7.60;64.60
4293;DHT22;2160;51.172;6.808;2023-02-28T18:53:33;7.60;65.10
4293;DHT22;2160;51.172;6.808;2023-02-28T18:56:00;7.60;65.10
4293;DHT22;2160;51.172;6.808;2023-02-28T18:58:28;7.50;65.20
4293;DHT22;2160;51.172;6.808;2023-02-28T19:00:55;7.50;66.00
4293;DHT22;2160;51.172;6.808;2023-02-28T19:03:23;7.60;66.00
4293;DHT22;2160;51.172;6.808;2023-02-28T19:05:53;7.60;66.40
4293;DHT22;2160;51.172;6.808;2023-02-28T19:08:20;7.70;65.70
4293;DHT22;2160;51.172;6.808;2023-02-28T19:10:47;7.70;65.60
4293;DHT22;2160;51.172;6.808;2023-02-28T19:13:14;7.60;65.50
4293;DHT22;2160;51.172;6.808;2023-02-28T19:15:42;7.50;66.00
4293;DHT22;2160;51.172;6.808;2023-02-28T19:18:09;7.50;65.70
4293;DHT22;2160;51.172;6.808;2023-02-28T19:20:37;7.60;66.70
4293;DHT22;2160;51.172;6.808;2023-02-28T19:23:05;7.60;66.20
4293;DHT22;2160;51.172;6.808;2023-02-28T19:25:38;7.60;68.00
4293;DHT22;2160;51.172;6.808;2023-02-28T19:28:05;7.90;68.20
4293;DHT22;2160;51.172;6.808;2023-02-28T19:30:35;7.70;66.90
4293;DHT22;2160;51.172;6.808;2023-02-28T19:33:05;7.70;68.10
4293;DHT22;2160;51.172;6.808;2023-02-28T19:35:32;7.60;68.80
4293;DHT22;2160;51.172;6.808;2023-02-28T19:38:00;7.60;69.60
4293;DHT22;2160;51.172;6.808;2023-02-28T19:40:27;7.90;68.20
4293;DHT22;2160;51.172;6.808;2023-02-28T19:42:56;7.70;68.30
4293;DHT22;2160;51.172;6.808;2023-02-28T19:45:25;7.70;69.90
4293;DHT22;2160;51.172;6.808;2023-02-28T19:47:53;7.50;70.80
4293;DHT22;2160;51.172;6.808;2023-02-28T19:50:21;7.50;70.00
4293;DHT22;2160;51.172;6.808;2023-02-28T19:52:48;7.60;69.20
4293;DHT22;2160;51.172;6.808;2023-02-28T19:55:17;7.50;69.30
4293;DHT22;2160;51.172;6.808;2023-02-28T19:57:44;7.50;68.70
4293;DHT22;2160;51.172;6.808;2023-02-28T20:00:13;7.50;69.50
4293;DHT22;2160;51.172;6.808;2023-02-28T20:02:41;7.50;69.70
4293;DHT22;2160;51.172;6.808;2023-02-28T20:05:09;7.40;69.70
4293;DHT22;2160;51.172;6.808;2023-02-28T20:07:36;7.30;72.00
4293;DHT22;2160;51.172;6.808;2023-02-28T20:10:05;7.30;71.00
4293;DHT22;2160;51.172;6.808;2023-02-28T20:12:33;7.30;72.70
4293;DHT22;2160;51.172;6.808;2023-02-28T20:15:00;7.60;71.70
4293;DHT22;2160;51.172;6.808;2023-02-28T20:17:29;7.30;73.30
4293;DHT22;2160;51.172;6.808;2023-02-28T20:19:56;7.20;72.40
4293;DHT22;2160;51.172;6.808;2023-02-28T20:22:23;7.40;73.80
4293;DHT22;2160;51.172;6.808;2023-02-28T20:24:50;7.10;73.30
4293;DHT22;2160;51.172;6.808;2023-02-28T20:27:18;7.00;74.40
4293;DHT22;2160;51.172;6.808;2023-02-28T20:29:46;7.00;74.90
4293;DHT22;2160;51.172;6.808;2023-02-28T20:32:14;7.00;75.40
4293;DHT22;2160;51.172;6.808;2023-02-28T20:34:41;7.10;75.90
4293;DHT22;2160;51.172;6.808;2023-02-28T20:37:08;7.00;78.00
4293;DHT22;2160;51.172;6.808;2023-02-28T20:39:36;6.90;77.50
4293;DHT22;2160;51.172;6.808;2023-02-28T20:42:03;6.90;76.60
4293;DHT22;2160;51.172;6.808;2023-02-28T20:44:30;6.90;77.10
4293;DHT22;2160;51.172;6.808;2023-02-28T20:46:58;6.80;77.30
4293;DHT22;2160;51.172;6.808;2023-02-28T20:49:26;6.80;77.70
4293;DHT22;2160;51.172;6.808;2023-02-28T20:51:53;6.80;79.30
4293;DHT22;2160;51.172;6.808;2023-02-28T20:54:20;6.70;78.80
4293;DHT22;2160;51.172;6.808;2023-02-28T20:56:47;6.60;80.20
4293;DHT22;2160;51.172;6.808;2023-02-28T20:59:14;6.60;79.30
4293;DHT22;2160;51.172;6.808;2023-02-28T21:01:41;6.60;82.50
4293;DHT22;2160;51.172;6.808;2023-02-28T21:04:09;6.50;84.20
4293;DHT22;2160;51.172;6.808;2023-02-28T21:06:38;6.40;83.10
4293;DHT22;2160;51.172;6.808;2023-02-28T21:09:07;6.50;82.90
4293;DHT22;2160;51.172;6.808;2023-02-28T21:11:36;6.50;81.40
4293;DHT22;2160;51.172;6.808;2023-02-28T21:14:05;6.50;83.60
4293;DHT22;2160;51.172;6.808;2023-02-28T21:16:33;6.50;84.30
4293;DHT22;2160;51.172;6.808;2023-02-28T21:19:00;6.40;85.70
4293;DHT22;2160;51.172;6.808;2023-02-28T21:21:31;6.30;88.00
4293;DHT22;2160;51.172;6.808;2023-02-28T21:23:59;6.30;86.50
4293;DHT22;2160;51.172;6.808;2023-02-28T21:26:26;6.30;87.50
4293;DHT22;2160;51.172;6.808;2023-02-28T21:28:54;6.20;87.10
4293;DHT22;2160;51.172;6.808;2023-02-28T21:31:24;6.30;87.30
4293;DHT22;2160;51.172;6.808;2023-02-28T21:33:51;6.40;85.50
4293;DHT22;2160;51.172;6.808;2023-02-28T21:36:20;6.40;84.90
4293;DHT22;2160;51.172;6.808;2023-02-28T21:38:54;6.40;84.50
4293;DHT22;2160;51.172;6.808;2023-02-28T21:41:22;6.40;84.60
4293;DHT22;2160;51.172;6.808;2023-02-28T21:43:50;6.40;85.50
4293;DHT22;2160;51.172;6.808;2023-02-28T21:46:20;6.40;84.30
4293;DHT22;2160;51.172;6.808;2023-02-28T21:48:47;6.50;85.10
4293;DHT22;2160;51.172;6.808;2023-02-28T21:51:16;6.30;84.20
4293;DHT22;2160;51.172;6.808;2023-02-28T21:53:43;6.30;85.00
4293;DHT22;2160;51.172;6.808;2023-02-28T21:56:16;6.40;84.50
4293;DHT22;2160;51.172;6.808;2023-02-28T21:58:44;6.40;83.70